createdAt,value
2018-09-12T00:00:20.916Z,7.8
2018-09-12T00:01:22.462Z,7.9
2018-09-12T00:02:24.052Z,7.9
2018-09-12T00:03:25.616Z,7.9
2018-09-12T00:04:27.239Z,7.9
2018-09-12T00:05:28.641Z,7.9
2018-09-12T00:06:30.202Z,7.9
2018-09-12T00:07:31.759Z,7.9
2018-09-12T00:08:33.330Z,7.8
2018-09-12T00:09:34.876Z,7.9
2018-09-12T00:10:36.443Z,7.9
2018-09-12T00:11:38.002Z,7.9
2018-09-12T00:12:39.585Z,7.9
2018-09-12T00:13:41.159Z,7.9
2018-09-12T00:14:42.725Z,7.8
2018-09-12T00:15:44.154Z,7.8
2018-09-12T00:16:45.727Z,7.8
2018-09-12T00:17:47.125Z,7.8
2018-09-12T00:18:48.696Z,7.8
2018-09-12T00:19:50.282Z,7.8
2018-09-12T00:20:51.828Z,7.8
2018-09-12T00:21:53.244Z,7.9
2018-09-12T00:22:54.802Z,7.9
2018-09-12T00:23:56.408Z,7.9
2018-09-12T00:24:57.955Z,7.9
2018-09-12T00:25:59.518Z,7.8
2018-09-12T00:27:01.100Z,7.8
2018-09-12T00:28:02.666Z,7.9
2018-09-12T00:29:04.235Z,7.8
2018-09-12T00:30:05.798Z,7.8
2018-09-12T00:31:07.362Z,7.8
2018-09-12T00:32:08.943Z,7.8
2018-09-12T00:33:10.528Z,7.8
2018-09-12T00:34:12.071Z,7.8
2018-09-12T00:35:13.626Z,7.8
2018-09-12T00:36:15.190Z,7.8
2018-09-12T00:37:16.810Z,7.8
2018-09-12T00:38:18.366Z,7.8
2018-09-12T00:39:19.926Z,7.8
2018-09-12T00:40:21.532Z,7.8
2018-09-12T00:41:23.100Z,7.8
2018-09-12T00:42:24.694Z,7.8
2018-09-12T00:43:26.251Z,7.8
2018-09-12T00:44:27.844Z,7.8
2018-09-12T00:45:29.411Z,7.8
2018-09-12T00:46:30.977Z,7.8
2018-09-12T00:47:32.537Z,7.8
2018-09-12T00:48:34.099Z,7.8
2018-09-12T00:49:35.514Z,7.8
2018-09-12T00:50:37.078Z,7.8
2018-09-12T00:51:38.626Z,7.8
2018-09-12T00:52:40.198Z,7.8
2018-09-12T00:53:41.777Z,7.8
2018-09-12T00:54:43.357Z,7.9
2018-09-12T00:55:44.927Z,7.9
2018-09-12T00:56:46.500Z,7.9
2018-09-12T00:57:48.096Z,7.9
2018-09-12T00:58:49.664Z,7.9
2018-09-12T00:59:51.255Z,7.9
2018-09-12T01:00:52.666Z,7.8
2018-09-12T01:01:54.251Z,7.8
2018-09-12T01:02:55.821Z,7.8
2018-09-12T01:03:57.608Z,7.8
2018-09-12T01:04:59.005Z,7.8
2018-09-12T01:06:00.418Z,7.8
2018-09-12T01:07:01.994Z,7.8
2018-09-12T01:08:03.570Z,7.8
2018-09-12T01:09:05.142Z,7.8
2018-09-12T01:10:06.725Z,7.8
2018-09-12T01:11:08.295Z,7.8
2018-09-12T01:12:09.849Z,7.9
2018-09-12T01:13:11.248Z,7.9
2018-09-12T01:14:12.646Z,7.9
2018-09-12T01:15:14.201Z,7.9
2018-09-12T01:16:15.786Z,7.9
2018-09-12T01:17:17.356Z,7.9
2018-09-12T01:18:18.966Z,7.9
2018-09-12T01:19:20.535Z,7.8
2018-09-12T01:20:22.103Z,7.8
2018-09-12T01:21:23.678Z,7.8
2018-09-12T01:22:25.264Z,7.7
2018-09-12T01:23:26.822Z,7.6
2018-09-12T01:24:28.388Z,7.4
2018-09-12T01:25:29.957Z,7.3
2018-09-12T01:26:31.522Z,7.2
2018-09-12T01:27:33.086Z,7.2
2018-09-12T01:28:34.648Z,7.2
2018-09-12T01:29:36.218Z,7.2
2018-09-12T01:30:37.610Z,7.2
2018-09-12T01:31:39.193Z,7.2
2018-09-12T01:32:40.745Z,7.1
2018-09-12T01:33:42.301Z,7.2
2018-09-12T01:34:43.875Z,7.1
2018-09-12T01:35:45.496Z,7.2
2018-09-12T01:36:47.060Z,7.2
2018-09-12T01:37:48.639Z,7.2
2018-09-12T01:38:50.205Z,7.2
2018-09-12T01:39:51.835Z,7.2
2018-09-12T01:40:53.378Z,7.1
2018-09-12T01:41:54.979Z,7.2
2018-09-12T01:42:56.527Z,7.2
2018-09-12T01:43:57.926Z,7.2
2018-09-12T01:44:59.496Z,7.2
2018-09-12T01:46:01.071Z,7.2
2018-09-12T01:47:02.646Z,7.2
2018-09-12T01:48:04.228Z,7.2
2018-09-12T01:49:05.784Z,7.2
2018-09-12T01:50:07.333Z,7.2
2018-09-12T01:51:08.964Z,7.2
2018-09-12T01:52:10.343Z,7.2
2018-09-12T01:53:11.895Z,7.2
2018-09-12T01:54:13.456Z,7.2
2018-09-12T01:55:15.067Z,7.2
2018-09-12T01:56:16.658Z,7.2
2018-09-12T01:57:18.053Z,7.2
2018-09-12T01:58:19.616Z,7.2
2018-09-12T01:59:21.173Z,7.2
2018-09-12T02:00:22.720Z,7.2
2018-09-12T02:01:24.298Z,7.2
2018-09-12T02:02:25.860Z,7.2
2018-09-12T02:03:27.446Z,7.2
2018-09-12T02:04:29.038Z,7.2
2018-09-12T02:05:30.596Z,7.2
2018-09-12T02:06:32.149Z,7.2
2018-09-12T02:07:33.376Z,7.2
2018-09-12T02:08:34.940Z,7.2
2018-09-12T02:09:36.487Z,7.2
2018-09-12T02:10:38.046Z,7.3
2018-09-12T02:11:39.463Z,7.3
2018-09-12T02:12:41.047Z,7.3
2018-09-12T02:13:42.626Z,7.3
2018-09-12T02:14:44.176Z,7.4
2018-09-12T02:15:45.723Z,7.4
2018-09-12T02:16:47.295Z,7.4
2018-09-12T02:17:48.841Z,7.5
2018-09-12T02:18:50.245Z,7.5
2018-09-12T02:19:51.805Z,7.6
2018-09-12T02:20:53.356Z,7.6
2018-09-12T02:21:54.818Z,7.7
2018-09-12T02:22:56.393Z,7.7
2018-09-12T02:23:57.977Z,7.8
2018-09-12T02:24:59.535Z,7.8
2018-09-12T02:26:01.088Z,7.8
2018-09-12T02:27:02.649Z,7.8
2018-09-12T02:28:04.053Z,7.8
2018-09-12T02:29:05.618Z,7.8
2018-09-12T02:30:07.207Z,7.9
2018-09-12T02:31:08.779Z,7.9
2018-09-12T02:32:10.345Z,7.9
2018-09-12T02:33:11.910Z,7.9
2018-09-12T02:34:13.477Z,7.9
2018-09-12T02:35:15.036Z,7.9
2018-09-12T02:36:16.646Z,7.9
2018-09-12T02:37:18.050Z,7.9
2018-09-12T02:38:19.661Z,7.9
2018-09-12T02:39:21.256Z,7.9
2018-09-12T02:40:22.840Z,7.9
2018-09-12T02:41:24.455Z,7.9
2018-09-12T02:42:26.019Z,7.9
2018-09-12T02:43:27.585Z,7.9
2018-09-12T02:44:28.986Z,7.9
2018-09-12T02:45:30.536Z,7.9
2018-09-12T02:46:32.099Z,7.9
2018-09-12T02:47:33.660Z,7.9
2018-09-12T02:48:35.211Z,7.9
2018-09-12T02:49:36.614Z,7.9
2018-09-12T02:50:38.013Z,7.9
2018-09-12T02:51:39.813Z,7.9
2018-09-12T02:52:41.385Z,7.9
2018-09-12T02:53:42.931Z,7.9
2018-09-12T02:54:44.495Z,7.9
2018-09-12T02:55:46.070Z,7.9
2018-09-12T02:56:47.636Z,7.9
2018-09-12T02:57:49.229Z,7.9
2018-09-12T02:58:50.626Z,7.9
2018-09-12T02:59:52.270Z,7.9
2018-09-12T03:00:53.672Z,7.9
2018-09-12T03:01:54.918Z,7.9
2018-09-12T03:02:56.309Z,7.9
2018-09-12T03:03:57.912Z,7.9
2018-09-12T03:04:59.476Z,7.9
2018-09-12T03:06:01.024Z,7.9
2018-09-12T03:07:02.575Z,7.9
2018-09-12T03:08:04.881Z,7.9
2018-09-12T03:09:06.601Z,7.9
2018-09-12T03:10:08.166Z,7.9
2018-09-12T03:11:09.748Z,7.9
2018-09-12T03:12:11.316Z,7.9
2018-09-12T03:13:12.898Z,7.9
2018-09-12T03:14:14.291Z,7.9
2018-09-12T03:15:15.853Z,7.9
2018-09-12T03:16:17.405Z,7.9
2018-09-12T03:17:18.836Z,7.8
2018-09-12T03:18:20.407Z,7.8
2018-09-12T03:19:21.979Z,7.8
2018-09-12T03:20:23.739Z,7.7
2018-09-12T03:21:25.317Z,7.7
2018-09-12T03:22:26.898Z,7.6
2018-09-12T03:23:28.497Z,7.5
2018-09-12T03:24:30.063Z,7.4
2018-09-12T03:25:31.624Z,7.2
2018-09-12T03:26:33.036Z,7.2
2018-09-12T03:27:34.605Z,7.2
2018-09-12T03:28:36.028Z,7.2
2018-09-12T03:29:37.584Z,7.2
2018-09-12T03:30:38.981Z,7.2
2018-09-12T03:31:40.677Z,7.2
2018-09-12T03:32:42.238Z,7.2
2018-09-12T03:33:43.826Z,7.2
2018-09-12T03:34:45.416Z,7.2
2018-09-12T03:35:46.807Z,7.2
2018-09-12T03:36:48.208Z,7.2
2018-09-12T03:37:49.797Z,7.2
2018-09-12T03:38:51.375Z,7.2
2018-09-12T03:39:52.939Z,7.2
2018-09-12T03:40:54.517Z,7.2
2018-09-12T03:41:56.104Z,7.2
2018-09-12T03:42:57.502Z,7.2
2018-09-12T03:43:59.061Z,7.2
2018-09-12T03:45:00.646Z,7.2
2018-09-12T03:46:02.216Z,7.2
2018-09-12T03:47:03.841Z,7.2
2018-09-12T03:48:06.072Z,7.2
2018-09-12T03:49:07.394Z,7.2
2018-09-12T03:50:08.983Z,7.2
2018-09-12T03:51:10.545Z,7.2
2018-09-12T03:52:12.127Z,7.2
2018-09-12T03:53:13.698Z,7.2
2018-09-12T03:54:15.090Z,7.2
2018-09-12T03:55:16.638Z,7.2
2018-09-12T03:56:18.225Z,7.2
2018-09-12T03:57:19.794Z,7.2
2018-09-12T03:58:21.380Z,7.2
2018-09-12T03:59:22.962Z,7.2
2018-09-12T04:00:24.541Z,7.2
2018-09-12T04:01:26.109Z,7.2
2018-09-12T04:02:27.710Z,7.2
2018-09-12T04:03:29.258Z,7.2
2018-09-12T04:04:30.837Z,7.2
2018-09-12T04:05:32.405Z,7.2
2018-09-12T04:06:33.992Z,7.2
2018-09-12T04:07:35.397Z,7.2
2018-09-12T04:08:36.954Z,7.2
2018-09-12T04:09:38.527Z,7.2
2018-09-12T04:10:40.095Z,7.2
2018-09-12T04:11:41.693Z,7.2
2018-09-12T04:12:43.247Z,7.2
2018-09-12T04:13:44.822Z,7.2
2018-09-12T04:14:46.385Z,7.2
2018-09-12T04:15:47.990Z,7.2
2018-09-12T04:16:50.066Z,7.2
2018-09-12T04:17:51.702Z,7.2
2018-09-12T04:18:53.255Z,7.2
2018-09-12T04:19:54.847Z,7.2
2018-09-12T04:20:56.421Z,7.2
2018-09-12T04:21:58.008Z,7.2
2018-09-12T04:22:59.418Z,7.2
2018-09-12T04:24:00.995Z,7.2
2018-09-12T04:25:02.596Z,7.2
2018-09-12T04:26:04.153Z,7.2
2018-09-12T04:27:05.718Z,7.2
2018-09-12T04:28:07.132Z,7.2
2018-09-12T04:29:08.705Z,7.3
2018-09-12T04:30:10.286Z,7.3
2018-09-12T04:31:11.845Z,7.3
2018-09-12T04:32:13.414Z,7.3
2018-09-12T04:33:14.992Z,7.3
2018-09-12T04:34:16.397Z,7.3
2018-09-12T04:35:17.958Z,7.3
2018-09-12T04:36:19.520Z,7.4
2018-09-12T04:37:21.088Z,7.4
2018-09-12T04:38:22.650Z,7.4
2018-09-12T04:39:24.267Z,7.4
2018-09-12T04:40:25.859Z,7.4
2018-09-12T04:41:27.437Z,7.4
2018-09-12T04:42:29.090Z,7.5
2018-09-12T04:43:30.728Z,7.5
2018-09-12T04:44:32.298Z,7.5
2018-09-12T04:45:33.697Z,7.6
2018-09-12T04:46:35.251Z,7.6
2018-09-12T04:47:36.817Z,7.7
2018-09-12T04:48:39.085Z,7.7
2018-09-12T04:49:40.659Z,7.8
2018-09-12T04:50:42.055Z,7.8
2018-09-12T04:51:43.623Z,7.8
2018-09-12T04:52:45.213Z,7.8
2018-09-12T04:53:46.768Z,7.8
2018-09-12T04:54:48.165Z,7.8
2018-09-12T04:55:49.730Z,7.9
2018-09-12T04:56:51.322Z,7.9
2018-09-12T04:57:52.888Z,7.9
2018-09-12T04:58:54.510Z,7.9
2018-09-12T04:59:56.066Z,7.9
2018-09-12T05:00:57.653Z,7.9
2018-09-12T05:01:59.215Z,7.9
2018-09-12T05:03:00.791Z,7.9
2018-09-12T05:04:02.364Z,7.9
2018-09-12T05:05:03.763Z,7.9
2018-09-12T05:06:05.337Z,7.9
2018-09-12T05:07:06.905Z,7.9
2018-09-12T05:08:08.484Z,7.9
2018-09-12T05:09:09.876Z,7.9
2018-09-12T05:10:11.771Z,7.9
2018-09-12T05:11:13.424Z,7.9
2018-09-12T05:12:15.003Z,7.9
2018-09-12T05:13:16.562Z,7.9
2018-09-12T05:14:18.136Z,7.8
2018-09-12T05:15:19.730Z,7.9
2018-09-12T05:16:21.337Z,7.8
2018-09-12T05:17:22.919Z,7.9
2018-09-12T05:18:24.488Z,7.9
2018-09-12T05:19:26.075Z,7.9
2018-09-12T05:20:27.629Z,7.9
2018-09-12T05:21:29.251Z,7.9
2018-09-12T05:22:30.655Z,7.9
2018-09-12T05:23:32.221Z,7.9
2018-09-12T05:24:33.628Z,7.8
2018-09-12T05:25:35.202Z,7.8
2018-09-12T05:26:36.774Z,7.8
2018-09-12T05:27:38.490Z,7.7
2018-09-12T05:28:40.667Z,7.6
2018-09-12T05:29:42.262Z,7.5
2018-09-12T05:30:43.671Z,7.4
2018-09-12T05:31:45.243Z,7.3
2018-09-12T05:32:46.825Z,7.2
2018-09-12T05:33:48.237Z,7.2
2018-09-12T05:34:49.808Z,7.2
2018-09-12T05:35:51.384Z,7.2
2018-09-12T05:36:52.779Z,7.2
2018-09-12T05:37:54.348Z,7.2
2018-09-12T05:38:55.941Z,7.2
2018-09-12T05:39:57.508Z,7.2
2018-09-12T05:40:59.089Z,7.2
2018-09-12T05:42:00.669Z,7.2
2018-09-12T05:43:02.246Z,7.2
2018-09-12T05:44:03.670Z,7.2
2018-09-12T05:45:05.248Z,7.2
2018-09-12T05:46:06.867Z,7.2
2018-09-12T05:47:08.581Z,7.2
2018-09-12T05:48:10.151Z,7.2
2018-09-12T05:49:11.569Z,7.2
2018-09-12T05:50:13.748Z,7.2
2018-09-12T05:51:15.168Z,7.2
2018-09-12T05:52:16.747Z,7.2
2018-09-12T05:53:18.327Z,7.2
2018-09-12T05:54:19.897Z,7.2
2018-09-12T05:55:21.293Z,7.2
2018-09-12T05:56:22.716Z,7.2
2018-09-12T05:57:24.288Z,7.2
2018-09-12T05:58:25.841Z,7.2
2018-09-12T05:59:27.435Z,7.2
2018-09-12T06:00:28.683Z,7.2
2018-09-12T06:01:30.261Z,7.2
2018-09-12T06:02:31.832Z,7.2
2018-09-12T06:03:33.240Z,7.2
2018-09-12T06:04:34.656Z,7.2
2018-09-12T06:05:36.254Z,7.2
2018-09-12T06:06:38.103Z,7.2
2018-09-12T06:07:39.726Z,7.2
2018-09-12T06:08:41.303Z,7.2
2018-09-12T06:09:42.885Z,7.2
2018-09-12T06:10:44.454Z,7.2
2018-09-12T06:11:46.088Z,7.2
2018-09-12T06:12:47.660Z,7.2
2018-09-12T06:13:49.813Z,7.2
2018-09-12T06:14:51.397Z,7.3
2018-09-12T06:15:52.962Z,7.3
2018-09-12T06:16:54.509Z,7.3
2018-09-12T06:17:55.955Z,7.4
2018-09-12T06:18:57.503Z,7.4
2018-09-12T06:19:59.068Z,7.4
2018-09-12T06:21:00.640Z,7.5
2018-09-12T06:22:02.217Z,7.5
2018-09-12T06:23:03.793Z,7.5
2018-09-12T06:24:05.359Z,7.6
2018-09-12T06:25:06.930Z,7.6
2018-09-12T06:26:08.489Z,7.6
2018-09-12T06:27:10.071Z,7.7
2018-09-12T06:28:11.482Z,7.7
2018-09-12T06:29:13.042Z,7.8
2018-09-12T06:30:14.599Z,7.8
2018-09-12T06:31:16.165Z,7.8
2018-09-12T06:32:17.809Z,7.8
2018-09-12T06:33:19.396Z,7.8
2018-09-12T06:34:20.997Z,7.9
2018-09-12T06:35:22.576Z,7.9
2018-09-12T06:36:24.027Z,7.9
2018-09-12T06:37:25.617Z,7.9
2018-09-12T06:38:28.008Z,7.8
2018-09-12T06:39:29.518Z,7.9
2018-09-12T06:40:31.129Z,7.9
2018-09-12T06:41:32.693Z,7.8
2018-09-12T06:42:34.103Z,7.8
2018-09-12T06:43:35.699Z,7.8
2018-09-12T06:44:37.509Z,7.8
2018-09-12T06:45:39.102Z,7.8
2018-09-12T06:46:40.688Z,7.8
2018-09-12T06:47:42.276Z,7.8
2018-09-12T06:48:43.881Z,7.8
2018-09-12T06:49:45.428Z,7.8
2018-09-12T06:50:46.978Z,7.9
2018-09-12T06:51:48.558Z,7.8
2018-09-12T06:52:50.146Z,7.9
2018-09-12T06:53:51.720Z,7.9
2018-09-12T06:54:53.311Z,7.9
2018-09-12T06:55:54.899Z,7.8
2018-09-12T06:56:56.636Z,7.8
2018-09-12T06:57:58.253Z,7.8
2018-09-12T06:58:59.855Z,7.8
2018-09-12T07:00:01.463Z,7.8
2018-09-12T07:01:03.559Z,7.8
2018-09-12T07:02:05.226Z,7.8
2018-09-12T07:03:06.783Z,7.8
2018-09-12T07:04:08.354Z,7.8
2018-09-12T07:05:09.919Z,7.8
2018-09-12T07:06:11.507Z,7.8
2018-09-12T07:07:13.088Z,7.8
2018-09-12T07:08:14.669Z,7.8
2018-09-12T07:09:16.259Z,7.8
2018-09-12T07:10:17.850Z,7.8
2018-09-12T07:11:19.411Z,7.8
2018-09-12T07:12:20.980Z,7.7
2018-09-12T07:13:22.577Z,7.7
2018-09-12T07:14:24.349Z,7.7
2018-09-12T07:15:25.793Z,7.6
2018-09-12T07:16:27.387Z,7.6
2018-09-12T07:17:28.950Z,7.5
2018-09-12T07:18:30.520Z,7.4
2018-09-12T07:19:32.106Z,7.3
2018-09-12T07:20:33.677Z,7.2
2018-09-12T07:21:35.244Z,7.2
2018-09-12T07:22:36.808Z,7.2
2018-09-12T07:23:38.589Z,7.2
2018-09-12T07:24:40.545Z,7.2
2018-09-12T07:25:42.173Z,7.2
2018-09-12T07:26:43.767Z,7.2
2018-09-12T07:27:45.830Z,7.2
2018-09-12T07:28:47.399Z,7.2
2018-09-12T07:29:48.820Z,7.2
2018-09-12T07:30:50.404Z,7.2
2018-09-12T07:31:51.982Z,7.2
2018-09-12T07:32:53.381Z,7.2
2018-09-12T07:33:54.967Z,7.2
2018-09-12T07:34:56.516Z,7.2
2018-09-12T07:35:58.088Z,7.2
2018-09-12T07:36:59.667Z,7.2
2018-09-12T07:38:01.075Z,7.2
2018-09-12T07:39:02.650Z,7.2
2018-09-12T07:40:04.240Z,7.2
2018-09-12T07:41:05.878Z,7.2
2018-09-12T07:42:07.446Z,7.2
2018-09-12T07:43:08.857Z,7.2
2018-09-12T07:44:10.428Z,7.2
2018-09-12T07:45:12.007Z,7.2
2018-09-12T07:46:13.588Z,7.2
2018-09-12T07:47:15.181Z,7.2
2018-09-12T07:48:16.565Z,7.2
2018-09-12T07:49:17.978Z,7.2
2018-09-12T07:50:19.573Z,7.2
2018-09-12T07:51:21.177Z,7.2
2018-09-12T07:52:22.760Z,7.2
2018-09-12T07:53:24.360Z,7.2
2018-09-12T07:54:25.977Z,7.2
2018-09-12T07:55:27.556Z,7.2
2018-09-12T07:56:30.223Z,7.2
2018-09-12T07:57:31.897Z,7.2
2018-09-12T07:58:33.458Z,7.2
2018-09-12T07:59:35.039Z,7.2
2018-09-12T08:00:36.732Z,7.2
2018-09-12T08:01:38.312Z,7.3
2018-09-12T08:02:39.917Z,7.3
2018-09-12T08:03:41.471Z,7.3
2018-09-12T08:04:43.094Z,7.3
2018-09-12T08:05:44.659Z,7.3
2018-09-12T08:06:46.248Z,7.3
2018-09-12T08:07:47.666Z,7.4
2018-09-12T08:08:49.063Z,7.4
2018-09-12T08:09:50.642Z,7.4
2018-09-12T08:10:52.231Z,7.4
2018-09-12T08:11:53.828Z,7.5
2018-09-12T08:12:55.232Z,7.5
2018-09-12T08:13:56.858Z,7.6
2018-09-12T08:14:58.430Z,7.6
2018-09-12T08:15:59.838Z,7.7
2018-09-12T08:17:01.392Z,7.7
2018-09-12T08:18:03.034Z,7.8
2018-09-12T08:19:05.305Z,7.8
2018-09-12T08:20:06.725Z,7.8
2018-09-12T08:21:08.278Z,7.8
2018-09-12T08:22:09.864Z,7.8
2018-09-12T08:23:11.442Z,7.8
2018-09-12T08:24:13.010Z,7.9
2018-09-12T08:25:14.567Z,7.9
2018-09-12T08:26:16.589Z,7.9
2018-09-12T08:27:18.176Z,7.9
2018-09-12T08:28:19.742Z,7.9
2018-09-12T08:29:21.301Z,7.9
2018-09-12T08:30:22.865Z,7.9
2018-09-12T08:31:24.268Z,7.9
2018-09-12T08:32:25.849Z,7.9
2018-09-12T08:33:27.612Z,7.9
2018-09-12T08:34:29.199Z,7.9
2018-09-12T08:35:30.777Z,7.9
2018-09-12T08:36:33.222Z,7.9
2018-09-12T08:37:34.827Z,7.9
2018-09-12T08:38:36.421Z,7.8
2018-09-12T08:39:37.995Z,7.8
2018-09-12T08:40:39.777Z,7.9
2018-09-12T08:41:41.220Z,7.9
2018-09-12T08:42:43.236Z,7.9
2018-09-12T08:43:44.880Z,7.9
2018-09-12T08:44:46.448Z,7.8
2018-09-12T08:45:48.036Z,7.8
2018-09-12T08:46:49.617Z,7.9
2018-09-12T08:47:51.714Z,7.9
2018-09-12T08:48:53.061Z,7.9
2018-09-12T08:49:54.637Z,7.9
2018-09-12T08:50:56.252Z,7.9
2018-09-12T08:51:57.850Z,7.9
2018-09-12T08:52:59.937Z,7.9
2018-09-12T08:54:01.665Z,7.9
2018-09-12T08:55:03.277Z,7.9
2018-09-12T08:56:04.685Z,7.9
2018-09-12T08:57:06.249Z,7.8
2018-09-12T08:58:07.643Z,7.8
2018-09-12T08:59:09.208Z,7.8
2018-09-12T09:00:11.064Z,7.8
2018-09-12T09:01:12.861Z,7.7
2018-09-12T09:02:14.449Z,7.7
2018-09-12T09:03:16.031Z,7.6
2018-09-12T09:04:17.628Z,7.5
2018-09-12T09:05:19.210Z,7.4
2018-09-12T09:06:20.773Z,7.3
2018-09-12T09:07:22.343Z,7.2
2018-09-12T09:08:23.908Z,7.2
2018-09-12T09:09:25.340Z,7.2
2018-09-12T09:10:27.447Z,7.2
2018-09-12T09:11:29.041Z,7.2
2018-09-12T09:12:30.474Z,7.2
2018-09-12T09:13:32.048Z,7.2
2018-09-12T09:14:33.662Z,7.2
2018-09-12T09:15:35.266Z,7.2
2018-09-12T09:16:36.833Z,7.2
2018-09-12T09:17:38.389Z,7.2
2018-09-12T09:18:39.969Z,7.2
2018-09-12T09:19:41.558Z,7.2
2018-09-12T09:20:43.128Z,7.2
2018-09-12T09:21:44.727Z,7.2
2018-09-12T09:22:46.323Z,7.2
2018-09-12T09:23:48.589Z,7.2
2018-09-12T09:24:50.171Z,7.2
2018-09-12T09:25:51.746Z,7.2
2018-09-12T09:26:53.310Z,7.2
2018-09-12T09:27:54.877Z,7.2
2018-09-12T09:28:56.467Z,7.2
2018-09-12T09:29:58.037Z,7.2
2018-09-12T09:30:59.594Z,7.2
2018-09-12T09:32:01.148Z,7.2
2018-09-12T09:33:02.739Z,7.2
2018-09-12T09:34:04.317Z,7.2
2018-09-12T09:35:06.521Z,7.2
2018-09-12T09:36:08.080Z,7.2
2018-09-12T09:37:09.666Z,7.2
2018-09-12T09:38:11.240Z,7.2
2018-09-12T09:39:12.817Z,7.3
2018-09-12T09:40:14.399Z,7.3
2018-09-12T09:41:16.007Z,7.3
2018-09-12T09:42:17.563Z,7.3
2018-09-12T09:43:19.140Z,7.3
2018-09-12T09:44:20.387Z,7.3
2018-09-12T09:45:21.805Z,7.3
2018-09-12T09:46:23.452Z,7.3
2018-09-12T09:47:25.017Z,7.4
2018-09-12T09:48:27.201Z,7.4
2018-09-12T09:49:28.863Z,7.4
2018-09-12T09:50:30.436Z,7.4
2018-09-12T09:51:32.028Z,7.5
2018-09-12T09:52:33.598Z,7.5
2018-09-12T09:53:35.162Z,7.5
2018-09-12T09:54:36.836Z,7.5
2018-09-12T09:55:38.220Z,7.6
2018-09-12T09:56:39.796Z,7.6
2018-09-12T09:57:41.417Z,7.6
2018-09-12T09:58:42.991Z,7.6
2018-09-12T09:59:44.552Z,7.6
2018-09-12T10:00:46.136Z,7.7
2018-09-12T10:01:47.561Z,7.7
2018-09-12T10:02:49.138Z,7.7
2018-09-12T10:03:50.710Z,7.7
2018-09-12T10:04:52.303Z,7.7
2018-09-12T10:05:54.263Z,7.8
2018-09-12T10:06:55.674Z,7.8
2018-09-12T10:07:57.228Z,7.8
2018-09-12T10:08:58.806Z,7.8
2018-09-12T10:10:00.392Z,7.8
2018-09-12T10:11:01.936Z,7.8
2018-09-12T10:12:03.748Z,7.8
2018-09-12T10:13:05.302Z,7.8
2018-09-12T10:14:06.883Z,7.8
2018-09-12T10:15:08.459Z,7.8
2018-09-12T10:16:10.039Z,7.8
2018-09-12T10:17:11.436Z,7.8
2018-09-12T10:18:12.991Z,7.8
2018-09-12T10:19:14.562Z,7.8
2018-09-12T10:20:16.132Z,7.8
2018-09-12T10:21:17.713Z,7.8
2018-09-12T10:22:19.284Z,7.8
2018-09-12T10:23:20.843Z,7.8
2018-09-12T10:24:23.243Z,7.8
2018-09-12T10:25:24.894Z,7.8
2018-09-12T10:26:26.494Z,7.8
2018-09-12T10:27:28.070Z,7.8
2018-09-12T10:28:29.648Z,7.8
2018-09-12T10:29:31.236Z,7.8
2018-09-12T10:30:32.811Z,7.8
2018-09-12T10:31:34.422Z,7.8
2018-09-12T10:32:36.029Z,7.8
2018-09-12T10:33:37.593Z,7.8
2018-09-12T10:34:39.179Z,7.8
2018-09-12T10:35:40.962Z,7.8
2018-09-12T10:36:42.507Z,7.8
2018-09-12T10:37:44.099Z,7.8
2018-09-12T10:38:45.515Z,7.9
2018-09-12T10:39:47.114Z,7.9
2018-09-12T10:40:48.701Z,7.9
2018-09-12T10:41:50.275Z,7.9
2018-09-12T10:42:51.875Z,7.8
2018-09-12T10:43:53.448Z,7.8
2018-09-12T10:44:54.828Z,7.8
2018-09-12T10:45:56.254Z,7.8
2018-09-12T10:46:57.820Z,7.7
2018-09-12T10:47:59.401Z,7.7
2018-09-12T10:49:00.980Z,7.6
2018-09-12T10:50:02.539Z,7.5
2018-09-12T10:51:04.117Z,7.4
2018-09-12T10:52:05.704Z,7.3
2018-09-12T10:53:07.127Z,7.2
2018-09-12T10:54:08.704Z,7.2
2018-09-12T10:55:10.285Z,7.2
2018-09-12T10:56:11.954Z,7.2
2018-09-12T10:57:13.533Z,7.2
2018-09-12T10:58:14.926Z,7.2
2018-09-12T10:59:16.951Z,7.2
2018-09-12T11:00:18.538Z,7.2
2018-09-12T11:01:20.106Z,7.2
2018-09-12T11:02:21.690Z,7.2
2018-09-12T11:03:23.289Z,7.2
2018-09-12T11:04:25.520Z,7.2
2018-09-12T11:05:27.196Z,7.2
2018-09-12T11:06:28.764Z,7.2
2018-09-12T11:07:30.172Z,7.2
2018-09-12T11:08:31.765Z,7.2
2018-09-12T11:09:33.338Z,7.2
2018-09-12T11:10:34.922Z,7.2
2018-09-12T11:11:36.499Z,7.2
2018-09-12T11:12:38.078Z,7.2
2018-09-12T11:13:39.684Z,7.2
2018-09-12T11:14:41.253Z,7.2
2018-09-12T11:15:42.807Z,7.2
2018-09-12T11:16:44.377Z,7.2
2018-09-12T11:17:45.985Z,7.2
2018-09-12T11:18:47.579Z,7.2
2018-09-12T11:19:49.004Z,7.2
2018-09-12T11:20:50.639Z,7.2
2018-09-12T11:21:52.251Z,7.2
2018-09-12T11:22:53.798Z,7.2
2018-09-12T11:23:55.571Z,7.3
2018-09-12T11:24:57.199Z,7.2
2018-09-12T11:25:58.794Z,7.3
2018-09-12T11:27:00.379Z,7.3
2018-09-12T11:28:01.963Z,7.3
2018-09-12T11:29:03.547Z,7.3
2018-09-12T11:30:04.975Z,7.3
2018-09-12T11:31:06.580Z,7.3
2018-09-12T11:32:08.169Z,7.3
2018-09-12T11:33:09.571Z,7.3
2018-09-12T11:34:11.397Z,7.4
2018-09-12T11:35:12.985Z,7.4
2018-09-12T11:36:14.550Z,7.4
2018-09-12T11:37:16.152Z,7.4
2018-09-12T11:38:17.721Z,7.5
2018-09-12T11:39:19.312Z,7.5
2018-09-12T11:40:20.933Z,7.5
2018-09-12T11:41:22.530Z,7.6
2018-09-12T11:42:24.123Z,7.6
2018-09-12T11:43:25.704Z,7.7
2018-09-12T11:44:27.279Z,7.7
2018-09-12T11:45:28.875Z,7.8
2018-09-12T11:46:30.153Z,7.8
2018-09-12T11:47:31.792Z,7.8
2018-09-12T11:48:33.366Z,7.8
2018-09-12T11:49:34.972Z,7.8
2018-09-12T11:50:36.569Z,7.8
2018-09-12T11:51:38.011Z,7.8
2018-09-12T11:52:39.447Z,7.8
2018-09-12T11:53:41.037Z,7.8
2018-09-12T11:54:42.608Z,7.8
2018-09-12T11:55:44.205Z,7.8
2018-09-12T11:56:45.790Z,7.8
2018-09-12T11:57:47.426Z,7.8
2018-09-12T11:58:49.020Z,7.8
2018-09-12T11:59:50.620Z,7.8
2018-09-12T12:00:52.229Z,7.8
2018-09-12T12:01:53.836Z,7.8
2018-09-12T12:02:55.406Z,7.8
2018-09-12T12:03:56.860Z,7.8
2018-09-12T12:04:58.428Z,7.8
2018-09-12T12:06:00.239Z,7.8
2018-09-12T12:07:01.882Z,7.8
2018-09-12T12:08:03.443Z,7.8
2018-09-12T12:09:05.033Z,7.8
2018-09-12T12:10:06.621Z,7.8
2018-09-12T12:11:08.228Z,7.8
2018-09-12T12:12:09.661Z,7.8
2018-09-12T12:13:11.245Z,7.8
2018-09-12T12:14:12.840Z,7.8
2018-09-12T12:15:14.661Z,7.8
2018-09-12T12:16:16.306Z,7.8
2018-09-12T12:17:17.915Z,7.8
2018-09-12T12:18:19.517Z,7.8
2018-09-12T12:19:21.270Z,7.8
2018-09-12T12:20:23.001Z,7.8
2018-09-12T12:21:24.592Z,7.8
2018-09-12T12:22:26.245Z,7.8
2018-09-12T12:23:27.841Z,7.8
2018-09-12T12:24:29.434Z,7.8
2018-09-12T12:25:30.989Z,7.8
2018-09-12T12:26:32.554Z,7.8
2018-09-12T12:27:34.161Z,7.8
2018-09-12T12:28:35.740Z,7.9
2018-09-12T12:29:37.150Z,7.8
2018-09-12T12:30:38.776Z,7.8
2018-09-12T12:31:40.377Z,7.8
2018-09-12T12:32:41.964Z,7.8
2018-09-12T12:33:43.575Z,7.8
2018-09-12T12:34:45.151Z,7.8
2018-09-12T12:35:46.705Z,7.8
2018-09-12T12:36:48.304Z,7.8
2018-09-12T12:37:49.882Z,7.8
2018-09-12T12:38:51.485Z,7.8
2018-09-12T12:39:53.048Z,7.7
2018-09-12T12:40:54.640Z,7.7
2018-09-12T12:41:56.200Z,7.6
2018-09-12T12:42:57.809Z,7.5
2018-09-12T12:43:59.377Z,7.4
2018-09-12T12:45:00.975Z,7.3
2018-09-12T12:46:02.547Z,7.2
2018-09-12T12:47:04.193Z,7.2
2018-09-12T12:48:05.775Z,7.2
2018-09-12T12:49:07.415Z,7.2
2018-09-12T12:50:08.992Z,7.2
2018-09-12T12:51:10.591Z,7.2
2018-09-12T12:52:11.984Z,7.2
2018-09-12T12:53:13.614Z,7.2
2018-09-12T12:54:15.215Z,7.2
2018-09-12T12:55:16.805Z,7.2
2018-09-12T12:56:18.388Z,7.2
2018-09-12T12:57:19.961Z,7.2
2018-09-12T12:58:21.533Z,7.2
2018-09-12T12:59:23.128Z,7.2
2018-09-12T13:00:24.760Z,7.2
2018-09-12T13:01:26.320Z,7.2
2018-09-12T13:02:27.912Z,7.2
2018-09-12T13:03:29.497Z,7.2
2018-09-12T13:04:31.093Z,7.2
2018-09-12T13:05:33.018Z,7.2
2018-09-12T13:06:34.657Z,7.2
2018-09-12T13:07:36.252Z,7.2
2018-09-12T13:08:37.835Z,7.2
2018-09-12T13:09:39.409Z,7.2
2018-09-12T13:10:41.019Z,7.2
2018-09-12T13:11:42.437Z,7.2
2018-09-12T13:12:44.077Z,7.2
2018-09-12T13:13:45.649Z,7.2
2018-09-12T13:14:47.974Z,7.2
2018-09-12T13:15:49.627Z,7.2
2018-09-12T13:16:51.193Z,7.3
2018-09-12T13:17:52.619Z,7.3
2018-09-12T13:18:54.063Z,7.3
2018-09-12T13:19:55.630Z,7.3
2018-09-12T13:20:57.053Z,7.3
2018-09-12T13:21:58.621Z,7.3
2018-09-12T13:23:00.203Z,7.3
2018-09-12T13:24:01.768Z,7.4
2018-09-12T13:25:03.364Z,7.4
2018-09-12T13:26:04.961Z,7.4
2018-09-12T13:27:06.707Z,7.4
2018-09-12T13:28:08.268Z,7.5
2018-09-12T13:29:09.841Z,7.5
2018-09-12T13:30:11.452Z,7.5
2018-09-12T13:31:13.011Z,7.6
2018-09-12T13:32:14.579Z,7.6
2018-09-12T13:33:16.153Z,7.6
2018-09-12T13:34:18.386Z,7.7
2018-09-12T13:35:20.028Z,7.7
2018-09-12T13:36:21.347Z,7.7
2018-09-12T13:37:22.939Z,7.8
2018-09-12T13:38:24.516Z,7.8
2018-09-12T13:39:26.121Z,7.8
2018-09-12T13:40:27.696Z,7.8
2018-09-12T13:41:29.288Z,7.8
2018-09-12T13:42:30.775Z,7.8
2018-09-12T13:43:32.363Z,7.8
2018-09-12T13:44:34.592Z,7.8
2018-09-12T13:45:36.222Z,7.8
2018-09-12T13:46:37.814Z,7.8
2018-09-12T13:47:39.236Z,7.8
2018-09-12T13:48:40.866Z,7.8
2018-09-12T13:49:42.465Z,7.8
2018-09-12T13:50:44.059Z,7.8
2018-09-12T13:51:45.636Z,7.8
2018-09-12T13:52:47.217Z,7.8
2018-09-12T13:53:48.797Z,7.9
2018-09-12T13:54:50.384Z,7.8
2018-09-12T13:55:51.970Z,7.8
2018-09-12T13:56:53.559Z,7.8
2018-09-12T13:57:55.182Z,7.8
2018-09-12T13:58:56.788Z,7.8
2018-09-12T13:59:58.350Z,7.8
2018-09-12T14:00:59.938Z,7.9
2018-09-12T14:02:01.538Z,7.9
2018-09-12T14:03:03.351Z,7.9
2018-09-12T14:04:04.969Z,7.9
2018-09-12T14:05:06.540Z,7.9
2018-09-12T14:06:08.149Z,7.9
2018-09-12T14:07:09.726Z,7.9
2018-09-12T14:08:11.334Z,7.9